sensor_id;sensor_type;location;lat;lon;timestamp;pressure;altitude;pressure_sealevel;temperature;humidity
12676;BME280;63820;65.654;21.944;2023-07-29T00:02:22;99518.22;;;16.00;100.00
12676;BME280;63820;65.654;21.944;2023-07-29T00:05:06;99523.97;;;15.94;100.00
12676;BME280;63820;65.654;21.944;2023-07-29T00:07:50;99508.72;;;15.88;100.00
12676;BME280;63820;65.654;21.944;2023-07-29T00:10:38;99509.22;;;15.82;100.00
12676;BME280;63820;65.654;21.944;2023-07-29T00:13:22;99502.28;;;15.81;100.00
12676;BME280;63820;65.654;21.944;2023-07-29T00:16:06;99503.50;;;15.77;100.00
12676;BME280;63820;65.654;21.944;2023-07-29T00:18:51;99495.41;;;15.68;100.00
12676;BME280;63820;65.654;21.944;2023-07-29T00:21:35;99483.38;;;15.66;100.00
12676;BME280;63820;65.654;21.944;2023-07-29T00:24:19;99480.44;;;15.59;100.00
12676;BME280;63820;65.654;21.944;2023-07-29T00:27:03;99470.53;;;15.52;100.00
12676;BME280;63820;65.654;21.944;2023-07-29T00:29:47;99474.94;;;15.51;100.00
12676;BME280;63820;65.654;21.944;2023-07-29T00:32:31;99484.00;;;15.47;100.00
12676;BME280;63820;65.654;21.944;2023-07-29T00:35:15;99467.69;;;15.44;100.00
12676;BME280;63820;65.654;21.944;2023-07-29T00:37:59;99467.94;;;15.41;100.00
12676;BME280;63820;65.654;21.944;2023-07-29T00:40:43;99470.69;;;15.39;100.00
12676;BME280;63820;65.654;21.944;2023-07-29T00:43:27;99462.34;;;15.34;100.00
12676;BME280;63820;65.654;21.944;2023-07-29T00:46:11;99464.38;;;15.30;100.00
12676;BME280;63820;65.654;21.944;2023-07-29T00:48:56;99455.69;;;15.30;100.00
12676;BME280;63820;65.654;21.944;2023-07-29T00:51:40;99454.84;;;15.29;100.00
12676;BME280;63820;65.654;21.944;2023-07-29T00:54:25;99445.19;;;15.30;100.00
12676;BME280;63820;65.654;21.944;2023-07-29T00:57:11;99443.28;;;15.32;100.00
12676;BME280;63820;65.654;21.944;2023-07-29T00:59:58;99438.03;;;15.32;100.00
12676;BME280;63820;65.654;21.944;2023-07-29T01:02:43;99435.88;;;15.37;100.00
12676;BME280;63820;65.654;21.944;2023-07-29T01:11:50;99434.22;;;15.36;100.00
12676;BME280;63820;65.654;21.944;2023-07-29T01:17:52;99428.03;;;15.37;100.00
12676;BME280;63820;65.654;21.944;2023-07-29T01:20:40;99433.97;;;15.39;100.00
12676;BME280;63820;65.654;21.944;2023-07-29T01:23:36;99430.66;;;15.37;100.00
12676;BME280;63820;65.654;21.944;2023-07-29T01:26:20;99426.13;;;15.39;100.00
12676;BME280;63820;65.654;21.944;2023-07-29T01:29:04;99421.81;;;15.38;100.00
12676;BME280;63820;65.654;21.944;2023-07-29T01:31:52;99420.16;;;15.37;100.00
12676;BME280;63820;65.654;21.944;2023-07-29T01:38:08;99424.22;;;15.30;100.00
12676;BME280;63820;65.654;21.944;2023-07-29T01:40:53;99428.16;;;15.35;100.00
12676;BME280;63820;65.654;21.944;2023-07-29T01:43:38;99429.94;;;15.35;100.00
12676;BME280;63820;65.654;21.944;2023-07-29T01:46:27;99425.66;;;15.34;100.00
12676;BME280;63820;65.654;21.944;2023-07-29T01:49:11;99432.81;;;15.32;100.00
12676;BME280;63820;65.654;21.944;2023-07-29T01:51:56;99432.81;;;15.32;100.00
12676;BME280;63820;65.654;21.944;2023-07-29T01:54:40;99426.72;;;15.31;100.00
12676;BME280;63820;65.654;21.944;2023-07-29T01:57:24;99430.19;;;15.32;100.00
12676;BME280;63820;65.654;21.944;2023-07-29T02:00:08;99429.47;;;15.30;100.00
12676;BME280;63820;65.654;21.944;2023-07-29T02:02:52;99431.38;;;15.28;100.00
12676;BME280;63820;65.654;21.944;2023-07-29T02:05:36;99427.69;;;15.30;100.00
12676;BME280;63820;65.654;21.944;2023-07-29T02:08:20;99433.63;;;15.32;100.00
12676;BME280;63820;65.654;21.944;2023-07-29T02:11:04;99433.63;;;15.32;100.00
12676;BME280;63820;65.654;21.944;2023-07-29T02:13:48;99432.56;;;15.35;100.00
12676;BME280;63820;65.654;21.944;2023-07-29T02:16:32;99443.63;;;15.38;100.00
12676;BME280;63820;65.654;21.944;2023-07-29T02:19:18;99434.81;;;15.40;100.00
12676;BME280;63820;65.654;21.944;2023-07-29T02:22:02;99434.56;;;15.43;100.00
12676;BME280;63820;65.654;21.944;2023-07-29T02:24:47;99440.63;;;15.43;100.00
12676;BME280;63820;65.654;21.944;2023-07-29T02:27:31;99436.22;;;15.44;100.00
12676;BME280;63820;65.654;21.944;2023-07-29T02:30:15;99438.16;;;15.42;100.00
12676;BME280;63820;65.654;21.944;2023-07-29T02:32:59;99435.66;;;15.40;100.00
12676;BME280;63820;65.654;21.944;2023-07-29T02:35:44;99444.47;;;15.39;100.00
12676;BME280;63820;65.654;21.944;2023-07-29T02:38:28;99450.78;;;15.36;100.00
12676;BME280;63820;65.654;21.944;2023-07-29T02:41:12;99443.16;;;15.33;100.00
12676;BME280;63820;65.654;21.944;2023-07-29T02:43:56;99438.03;;;15.32;100.00
12676;BME280;63820;65.654;21.944;2023-07-29T02:46:40;99449.34;;;15.32;100.00
12676;BME280;63820;65.654;21.944;2023-07-29T02:49:24;99440.78;;;15.30;100.00
12676;BME280;63820;65.654;21.944;2023-07-29T02:52:08;99449.47;;;15.31;100.00
12676;BME280;63820;65.654;21.944;2023-07-29T02:54:52;99435.66;;;15.29;100.00
12676;BME280;63820;65.654;21.944;2023-07-29T02:57:36;99441.75;;;15.29;100.00
12676;BME280;63820;65.654;21.944;2023-07-29T03:00:20;99446.16;;;15.29;100.00
12676;BME280;63820;65.654;21.944;2023-07-29T03:03:04;99451.50;;;15.27;100.00
12676;BME280;63820;65.654;21.944;2023-07-29T03:05:48;99449.97;;;15.25;100.00
12676;BME280;63820;65.654;21.944;2023-07-29T03:08:32;99450.91;;;15.24;100.00
12676;BME280;63820;65.654;21.944;2023-07-29T03:11:16;99445.81;;;15.22;100.00
12676;BME280;63820;65.654;21.944;2023-07-29T03:14:00;99437.94;;;15.22;100.00
12676;BME280;63820;65.654;21.944;2023-07-29T03:16:46;99426.63;;;15.22;100.00
12676;BME280;63820;65.654;21.944;2023-07-29T03:19:29;99416.97;;;15.22;100.00
12676;BME280;63820;65.654;21.944;2023-07-29T03:22:14;99432.81;;;15.21;100.00
12676;BME280;63820;65.654;21.944;2023-07-29T03:24:58;99436.50;;;15.18;100.00
12676;BME280;63820;65.654;21.944;2023-07-29T03:27:42;99440.91;;;15.18;100.00
12676;BME280;63820;65.654;21.944;2023-07-29T03:30:26;99426.97;;;15.17;100.00
12676;BME280;63820;65.654;21.944;2023-07-29T03:33:10;99454.97;;;15.17;100.00
12676;BME280;63820;65.654;21.944;2023-07-29T03:35:54;99457.84;;;15.14;100.00
12676;BME280;63820;65.654;21.944;2023-07-29T03:38:38;99432.34;;;15.16;100.00
12676;BME280;63820;65.654;21.944;2023-07-29T03:41:24;99430.69;;;15.15;100.00
12676;BME280;63820;65.654;21.944;2023-07-29T03:44:08;99449.72;;;15.17;100.00
12676;BME280;63820;65.654;21.944;2023-07-29T03:46:52;99434.25;;;15.14;100.00
12676;BME280;63820;65.654;21.944;2023-07-29T03:49:35;99413.28;;;15.14;100.00
12676;BME280;63820;65.654;21.944;2023-07-29T03:52:19;99414.25;;;15.13;100.00
12676;BME280;63820;65.654;21.944;2023-07-29T03:55:04;99432.59;;;15.13;100.00
12676;BME280;63820;65.654;21.944;2023-07-29T03:57:48;99418.41;;;15.15;100.00
12676;BME280;63820;65.654;21.944;2023-07-29T04:00:32;99418.28;;;15.17;100.00
12676;BME280;63820;65.654;21.944;2023-07-29T04:03:17;99421.88;;;15.16;100.00
12676;BME280;63820;65.654;21.944;2023-07-29T04:06:01;99432.94;;;15.19;100.00
12676;BME280;63820;65.654;21.944;2023-07-29T04:08:45;99442.59;;;15.19;100.00
12676;BME280;63820;65.654;21.944;2023-07-29T04:11:30;99433.78;;;15.20;100.00
12676;BME280;63820;65.654;21.944;2023-07-29T04:14:14;99428.16;;;15.24;100.00
12676;BME280;63820;65.654;21.944;2023-07-29T04:16:58;99431.88;;;15.22;100.00
12676;BME280;63820;65.654;21.944;2023-07-29T04:19:41;99433.78;;;15.20;100.00
12676;BME280;63820;65.654;21.944;2023-07-29T04:22:26;99435.19;;;15.24;100.00
12676;BME280;63820;65.654;21.944;2023-07-29T04:25:10;99436.03;;;15.24;100.00
12676;BME280;63820;65.654;21.944;2023-07-29T04:27:54;99434.25;;;15.25;100.00
12676;BME280;63820;65.654;21.944;2023-07-29T04:30:38;99431.38;;;15.28;100.00
12676;BME280;63820;65.654;21.944;2023-07-29T04:33:22;99423.16;;;15.32;100.00
12676;BME280;63820;65.654;21.944;2023-07-29T04:36:06;99425.78;;;15.32;100.00
12676;BME280;63820;65.654;21.944;2023-07-29T04:38:50;99430.28;;;15.42;100.00
12676;BME280;63820;65.654;21.944;2023-07-29T04:41:34;99425.88;;;15.42;100.00
12676;BME280;63820;65.654;21.944;2023-07-29T04:44:18;99413.72;;;15.41;100.00
12676;BME280;63820;65.654;21.944;2023-07-29T04:47:02;99416.44;;;15.51;100.00
12676;BME280;63820;65.654;21.944;2023-07-29T04:49:47;99422.25;;;15.54;100.00
12676;BME280;63820;65.654;21.944;2023-07-29T04:52:31;99409.66;;;15.59;100.00
12676;BME280;63820;65.654;21.944;2023-07-29T04:55:15;99419.84;;;15.62;100.00
12676;BME280;63820;65.654;21.944;2023-07-29T04:57:59;99416.28;;;15.63;100.00
12676;BME280;63820;65.654;21.944;2023-07-29T05:00:46;99420.81;;;15.61;100.00
12676;BME280;63820;65.654;21.944;2023-07-29T05:03:30;99417.50;;;15.59;100.00
12676;BME280;63820;65.654;21.944;2023-07-29T05:06:14;99417.63;;;15.58;100.00
12676;BME280;63820;65.654;21.944;2023-07-29T05:08:58;99420.34;;;15.56;100.00
12676;BME280;63820;65.654;21.944;2023-07-29T05:11:42;99416.06;;;15.55;100.00
12676;BME280;63820;65.654;21.944;2023-07-29T05:14:29;99409.41;;;15.51;100.00
12676;BME280;63820;65.654;21.944;2023-07-29T05:17:13;99403.91;;;15.54;100.00
12676;BME280;63820;65.654;21.944;2023-07-29T05:19:57;99404.75;;;15.55;100.00
12676;BME280;63820;65.654;21.944;2023-07-29T05:22:41;99409.66;;;15.59;100.00
12676;BME280;63820;65.654;21.944;2023-07-29T05:25:25;99414.72;;;15.61;100.00
12676;BME280;63820;65.654;21.944;2023-07-29T05:28:09;99411.16;;;15.62;100.00
12676;BME280;63820;65.654;21.944;2023-07-29T05:30:53;99409.38;;;15.62;100.00
12676;BME280;63820;65.654;21.944;2023-07-29T05:33:37;99420.44;;;15.66;100.00
12676;BME280;63820;65.654;21.944;2023-07-29T05:36:21;99417.94;;;15.64;100.00
12676;BME280;63820;65.654;21.944;2023-07-29T05:39:05;99408.16;;;15.66;100.00
12676;BME280;63820;65.654;21.944;2023-07-29T05:41:49;99406.38;;;15.67;100.00
12676;BME280;63820;65.654;21.944;2023-07-29T05:44:34;99406.38;;;15.67;100.00
12676;BME280;63820;65.654;21.944;2023-07-29T05:47:18;99409.44;;;15.72;100.00
12676;BME280;63820;65.654;21.944;2023-07-29T05:50:02;99412.78;;;15.74;100.00
12676;BME280;63820;65.654;21.944;2023-07-29T05:52:48;99406.44;;;15.77;100.00
12676;BME280;63820;65.654;21.944;2023-07-29T05:55:32;99409.78;;;15.79;100.00
12676;BME280;63820;65.654;21.944;2023-07-29T05:58:16;99416.69;;;15.80;100.00
12676;BME280;63820;65.654;21.944;2023-07-29T06:01:00;99412.28;;;15.80;100.00
12676;BME280;63820;65.654;21.944;2023-07-29T06:03:44;99413.00;;;15.82;100.00
12676;BME280;63820;65.654;21.944;2023-07-29T06:06:28;99413.56;;;15.86;100.00
12676;BME280;63820;65.654;21.944;2023-07-29T06:09:13;99415.69;;;15.92;100.00
12676;BME280;63820;65.654;21.944;2023-07-29T06:11:57;99414.47;;;15.96;100.00
12676;BME280;63820;65.654;21.944;2023-07-29T06:14:41;99413.84;;;16.03;100.00
12676;BME280;63820;65.654;21.944;2023-07-29T06:17:25;99409.31;;;16.06;100.00
12676;BME280;63820;65.654;21.944;2023-07-29T06:20:09;99419.41;;;16.10;100.00
12676;BME280;63820;65.654;21.944;2023-07-29T06:22:53;99418.47;;;16.11;100.00
12676;BME280;63820;65.654;21.944;2023-07-29T06:25:37;99414.75;;;16.14;100.00
12676;BME280;63820;65.654;21.944;2023-07-29T06:28:21;99411.47;;;16.21;100.00
12676;BME280;63820;65.654;21.944;2023-07-29T06:31:05;99405.47;;;16.30;100.00
12676;BME280;63820;65.654;21.944;2023-07-29T06:33:49;99400.53;;;16.37;100.00
12676;BME280;63820;65.654;21.944;2023-07-29T06:36:33;99400.84;;;16.44;100.00
12676;BME280;63820;65.654;21.944;2023-07-29T06:39:17;99400.06;;;16.53;100.00
12676;BME280;63820;65.654;21.944;2023-07-29T06:42:01;99394.97;;;16.61;100.00
12676;BME280;63820;65.654;21.944;2023-07-29T06:44:46;99390.44;;;16.63;100.00
12676;BME280;63820;65.654;21.944;2023-07-29T06:47:30;99388.78;;;16.62;100.00
12676;BME280;63820;65.654;21.944;2023-07-29T06:50:14;99385.19;;;16.63;100.00
12676;BME280;63820;65.654;21.944;2023-07-29T06:52:58;99374.94;;;16.60;100.00
12676;BME280;63820;65.654;21.944;2023-07-29T06:55:42;99391.69;;;16.68;100.00
12676;BME280;63820;65.654;21.944;2023-07-29T06:58:27;99397.53;;;16.72;100.00
12676;BME280;63820;65.654;21.944;2023-07-29T07:01:11;99400.84;;;16.74;100.00
12676;BME280;63820;65.654;21.944;2023-07-29T07:03:55;99391.41;;;16.62;100.00
12676;BME280;63820;65.654;21.944;2023-07-29T07:06:42;99397.63;;;16.61;100.00
12676;BME280;63820;65.654;21.944;2023-07-29T07:09:26;99391.25;;;16.63;100.00
12676;BME280;63820;65.654;21.944;2023-07-29T07:12:10;99393.50;;;16.68;100.00
12676;BME280;63820;65.654;21.944;2023-07-29T07:14:54;99391.25;;;16.63;100.00
12676;BME280;63820;65.654;21.944;2023-07-29T07:17:39;99383.78;;;16.59;100.00
12676;BME280;63820;65.654;21.944;2023-07-29T07:20:23;99384.75;;;16.58;100.00
12676;BME280;63820;65.654;21.944;2023-07-29T07:23:07;99384.31;;;16.53;100.00
12676;BME280;63820;65.654;21.944;2023-07-29T07:25:55;99391.03;;;16.46;100.00
12676;BME280;63820;65.654;21.944;2023-07-29T07:28:39;99393.66;;;16.46;100.00
12676;BME280;63820;65.654;21.944;2023-07-29T07:31:23;99374.84;;;16.41;100.00
12676;BME280;63820;65.654;21.944;2023-07-29T07:34:07;99384.38;;;16.42;100.00
12676;BME280;63820;65.654;21.944;2023-07-29T07:36:50;99383.69;;;16.40;100.00
12676;BME280;63820;65.654;21.944;2023-07-29T07:39:34;99379.25;;;16.40;100.00
12676;BME280;63820;65.654;21.944;2023-07-29T07:42:18;99376.50;;;16.42;100.00
12676;BME280;63820;65.654;21.944;2023-07-29T07:45:03;99381.25;;;16.48;100.00
12676;BME280;63820;65.654;21.944;2023-07-29T07:47:47;99375.72;;;16.51;100.00
12676;BME280;63820;65.654;21.944;2023-07-29T07:50:31;99376.28;;;16.54;100.00
12676;BME280;63820;65.654;21.944;2023-07-29T07:53:15;99377.13;;;16.55;100.00
12676;BME280;63820;65.654;21.944;2023-07-29T07:56:00;99370.22;;;16.54;100.00
12676;BME280;63820;65.654;21.944;2023-07-29T07:58:43;99368.53;;;16.53;100.00
12676;BME280;63820;65.654;21.944;2023-07-29T08:01:27;99366.63;;;16.55;100.00
12676;BME280;63820;65.654;21.944;2023-07-29T08:04:11;99360.66;;;16.53;100.00
12676;BME280;63820;65.654;21.944;2023-07-29T08:06:55;99372.13;;;16.52;100.00
12676;BME280;63820;65.654;21.944;2023-07-29T08:09:39;99379.34;;;16.59;100.00
12676;BME280;63820;65.654;21.944;2023-07-29T08:12:23;99369.03;;;16.67;100.00
12676;BME280;63820;65.654;21.944;2023-07-29T08:15:07;99369.28;;;16.64;100.00
12676;BME280;63820;65.654;21.944;2023-07-29T08:17:51;99379.13;;;16.72;100.00
12676;BME280;63820;65.654;21.944;2023-07-29T08:20:35;99373.91;;;16.82;100.00
12676;BME280;63820;65.654;21.944;2023-07-29T08:23:20;99374.31;;;16.77;100.00
12676;BME280;63820;65.654;21.944;2023-07-29T08:26:05;99371.84;;;16.85;100.00
12676;BME280;63820;65.654;21.944;2023-07-29T08:28:49;99377.69;;;16.89;100.00
12676;BME280;63820;65.654;21.944;2023-07-29T08:31:33;99376.16;;;16.86;100.00
12676;BME280;63820;65.654;21.944;2023-07-29T08:34:18;99380.03;;;16.92;100.00
12676;BME280;63820;65.654;21.944;2023-07-29T08:37:01;99382.81;;;16.90;100.00
12676;BME280;63820;65.654;21.944;2023-07-29T08:39:46;99383.94;;;16.97;100.00
12676;BME280;63820;65.654;21.944;2023-07-29T08:42:31;99380.34;;;16.98;100.00
12676;BME280;63820;65.654;21.944;2023-07-29T08:45:17;99383.63;;;16.91;100.00
12676;BME280;63820;65.654;21.944;2023-07-29T08:48:02;99381.41;;;16.86;100.00
12676;BME280;63820;65.654;21.944;2023-07-29T08:50:52;99388.16;;;16.79;100.00
12676;BME280;63820;65.654;21.944;2023-07-29T08:53:39;99377.50;;;16.81;100.00
12676;BME280;63820;65.654;21.944;2023-07-29T08:56:24;99386.66;;;16.86;100.00
12676;BME280;63820;65.654;21.944;2023-07-29T08:59:10;99388.09;;;17.00;100.00
12676;BME280;63820;65.654;21.944;2023-07-29T09:01:56;99383.13;;;17.07;100.00
12676;BME280;63820;65.654;21.944;2023-07-29T09:04:42;99387.41;;;17.08;100.00
12676;BME280;63820;65.654;21.944;2023-07-29T09:07:26;99379.69;;;17.16;100.00
12676;BME280;63820;65.654;21.944;2023-07-29T09:10:13;99381.66;;;17.33;100.00
12676;BME280;63820;65.654;21.944;2023-07-29T09:12:57;99374.34;;;17.37;100.00
12676;BME280;63820;65.654;21.944;2023-07-29T09:15:41;99377.25;;;17.53;100.00
12676;BME280;63820;65.654;21.944;2023-07-29T09:18:27;99366.88;;;17.51;100.00
12676;BME280;63820;65.654;21.944;2023-07-29T09:21:12;99372.69;;;17.64;100.00
12676;BME280;63820;65.654;21.944;2023-07-29T09:24:03;99367.44;;;17.64;100.00
12676;BME280;63820;65.654;21.944;2023-07-29T09:26:49;99369.22;;;17.64;100.00
12676;BME280;63820;65.654;21.944;2023-07-29T09:29:35;99366.59;;;17.93;100.00
12676;BME280;63820;65.654;21.944;2023-07-29T09:32:24;99359.75;;;18.19;100.00
12676;BME280;63820;65.654;21.944;2023-07-29T09:35:12;99355.44;;;18.28;100.00
12676;BME280;63820;65.654;21.944;2023-07-29T09:37:57;99366.75;;;18.48;100.00
12676;BME280;63820;65.654;21.944;2023-07-29T09:40:41;99355.09;;;18.50;100.00
12676;BME280;63820;65.654;21.944;2023-07-29T09:43:29;99355.47;;;18.55;100.00
12676;BME280;63820;65.654;21.944;2023-07-29T09:46:13;99355.47;;;18.65;100.00
12676;BME280;63820;65.654;21.944;2023-07-29T09:48:57;99348.94;;;18.69;100.00
12676;BME280;63820;65.654;21.944;2023-07-29T09:51:41;99351.63;;;18.77;100.00
12676;BME280;63820;65.654;21.944;2023-07-29T09:54:25;99353.41;;;18.86;100.00
12676;BME280;63820;65.654;21.944;2023-07-29T09:57:11;99349.69;;;18.79;100.00
12676;BME280;63820;65.654;21.944;2023-07-29T09:59:56;99350.44;;;18.72;100.00
12676;BME280;63820;65.654;21.944;2023-07-29T10:02:41;99348.31;;;18.75;100.00
12676;BME280;63820;65.654;21.944;2023-07-29T10:05:27;99355.88;;;18.70;100.00
12676;BME280;63820;65.654;21.944;2023-07-29T10:08:12;99353.09;;;18.72;100.00
12676;BME280;63820;65.654;21.944;2023-07-29T10:10:59;99342.59;;;18.62;100.00
12676;BME280;63820;65.654;21.944;2023-07-29T10:13:44;99351.72;;;18.68;100.00
12676;BME280;63820;65.654;21.944;2023-07-29T10:16:29;99348.59;;;19.00;100.00
12676;BME280;63820;65.654;21.944;2023-07-29T10:19:13;99350.06;;;19.12;100.00
12676;BME280;63820;65.654;21.944;2023-07-29T10:22:03;99348.69;;;19.08;100.00
12676;BME280;63820;65.654;21.944;2023-07-29T10:24:48;99350.56;;;18.98;100.00
12676;BME280;63820;65.654;21.944;2023-07-29T10:27:42;99348.69;;;19.08;100.00
12676;BME280;63820;65.654;21.944;2023-07-29T10:30:28;99342.19;;;18.84;100.00
12676;BME280;63820;65.654;21.944;2023-07-29T10:33:12;99338.28;;;18.61;100.00
12676;BME280;63820;65.654;21.944;2023-07-29T10:35:56;99336.97;;;18.38;100.00
12676;BME280;63820;65.654;21.944;2023-07-29T10:38:40;99336.44;;;18.71;100.00
12676;BME280;63820;65.654;21.944;2023-07-29T10:42:00;99336.31;;;18.90;100.00
12676;BME280;63820;65.654;21.944;2023-07-29T10:44:49;99333.78;;;18.99;100.00
12676;BME280;63820;65.654;21.944;2023-07-29T10:47:33;99336.69;;;18.95;100.00
12676;BME280;63820;65.654;21.944;2023-07-29T10:50:21;99336.88;;;19.12;100.00
12676;BME280;63820;65.654;21.944;2023-07-29T10:53:06;99326.34;;;19.12;100.00
12676;BME280;63820;65.654;21.944;2023-07-29T10:55:51;99339.69;;;19.46;100.00
12676;BME280;63820;65.654;21.944;2023-07-29T10:58:35;99331.72;;;19.55;100.00
12676;BME280;63820;65.654;21.944;2023-07-29T11:01:30;99339.16;;;19.42;100.00
12676;BME280;63820;65.654;21.944;2023-07-29T11:15:25;99330.19;;;19.35;100.00
12676;BME280;63820;65.654;21.944;2023-07-29T11:18:09;99327.41;;;19.19;100.00
12676;BME280;63820;65.654;21.944;2023-07-29T11:20:56;99319.56;;;19.09;100.00
12676;BME280;63820;65.654;21.944;2023-07-29T11:23:40;99322.41;;;18.98;100.00
12676;BME280;63820;65.654;21.944;2023-07-29T11:26:24;99313.28;;;18.92;100.00
12676;BME280;63820;65.654;21.944;2023-07-29T11:29:09;99317.88;;;19.08;100.00
12676;BME280;63820;65.654;21.944;2023-07-29T11:31:53;99315.50;;;19.33;100.00
12676;BME280;63820;65.654;21.944;2023-07-29T11:34:38;99310.94;;;19.52;100.00
12676;BME280;63820;65.654;21.944;2023-07-29T11:37:23;99305.66;;;19.52;100.00
12676;BME280;63820;65.654;21.944;2023-07-29T11:40:08;99311.06;;;19.69;100.00
12676;BME280;63820;65.654;21.944;2023-07-29T11:42:55;99317.59;;;20.08;100.00
12676;BME280;63820;65.654;21.944;2023-07-29T11:45:40;99312.59;;;20.57;100.00
12676;BME280;63820;65.654;21.944;2023-07-29T11:48:33;99303.72;;;20.82;100.00
12676;BME280;63820;65.654;21.944;2023-07-29T11:51:17;99310.88;;;20.90;100.00
12676;BME280;63820;65.654;21.944;2023-07-29T11:54:01;99303.13;;;20.46;100.00
12676;BME280;63820;65.654;21.944;2023-07-29T11:56:46;99306.88;;;20.10;100.00
12676;BME280;63820;65.654;21.944;2023-07-29T11:59:30;99309.53;;;19.48;100.00
12676;BME280;63820;65.654;21.944;2023-07-29T12:02:16;99318.44;;;19.65;100.00
12676;BME280;63820;65.654;21.944;2023-07-29T12:05:03;99323.72;;;19.47;100.00
12676;BME280;63820;65.654;21.944;2023-07-29T12:07:48;99327.19;;;19.30;100.00
12676;BME280;63820;65.654;21.944;2023-07-29T12:10:33;99339.53;;;19.30;100.00
12676;BME280;63820;65.654;21.944;2023-07-29T12:13:18;99334.41;;;19.28;100.00
12676;BME280;63820;65.654;21.944;2023-07-29T12:16:02;99327.47;;;19.27;100.00
12676;BME280;63820;65.654;21.944;2023-07-29T12:18:50;99336.81;;;19.39;100.00
12676;BME280;63820;65.654;21.944;2023-07-29T12:21:35;99336.59;;;19.15;100.00
12676;BME280;63820;65.654;21.944;2023-07-29T12:24:22;99332.41;;;18.94;100.00
12676;BME280;63820;65.654;21.944;2023-07-29T12:27:11;99334.94;;;18.86;100.00
12676;BME280;63820;65.654;21.944;2023-07-29T12:29:56;99329.69;;;18.86;100.00
12676;BME280;63820;65.654;21.944;2023-07-29T12:32:44;99323.53;;;18.95;100.00
12676;BME280;63820;65.654;21.944;2023-07-29T12:35:36;99325.94;;;19.07;100.00
12676;BME280;63820;65.654;21.944;2023-07-29T12:38:21;99315.56;;;19.05;100.00
12676;BME280;63820;65.654;21.944;2023-07-29T12:41:05;99316.88;;;18.91;100.00
12676;BME280;63820;65.654;21.944;2023-07-29T12:43:50;99313.19;;;18.84;100.00
12676;BME280;63820;65.654;21.944;2023-07-29T12:46:34;99302.44;;;18.95;100.00
12676;BME280;63820;65.654;21.944;2023-07-29T12:49:18;99306.94;;;18.85;100.00
12676;BME280;63820;65.654;21.944;2023-07-29T12:52:02;99310.34;;;18.95;100.00
12676;BME280;63820;65.654;21.944;2023-07-29T12:54:46;99304.97;;;18.87;100.00
12676;BME280;63820;65.654;21.944;2023-07-29T12:57:30;99303.91;;;18.80;100.00
12676;BME280;63820;65.654;21.944;2023-07-29T13:00:14;99298.72;;;18.71;100.00
12676;BME280;63820;65.654;21.944;2023-07-29T13:02:58;99297.34;;;18.67;100.00
12676;BME280;63820;65.654;21.944;2023-07-29T13:05:42;99299.75;;;18.50;100.00
12676;BME280;63820;65.654;21.944;2023-07-29T13:08:26;99304.41;;;18.29;100.00
12676;BME280;63820;65.654;21.944;2023-07-29T13:11:10;99309.78;;;18.00;100.00
12676;BME280;63820;65.654;21.944;2023-07-29T13:13:54;99312.28;;;17.92;100.00
12676;BME280;63820;65.654;21.944;2023-07-29T13:16:38;99308.97;;;17.90;100.00
12676;BME280;63820;65.654;21.944;2023-07-29T13:19:22;99318.25;;;17.84;100.00
12676;BME280;63820;65.654;21.944;2023-07-29T13:22:06;99310.50;;;17.83;100.00
12676;BME280;63820;65.654;21.944;2023-07-29T13:24:50;99321.41;;;18.07;100.00
12676;BME280;63820;65.654;21.944;2023-07-29T13:27:34;99318.16;;;18.23;100.00
12676;BME280;63820;65.654;21.944;2023-07-29T13:30:18;99306.91;;;18.30;100.00
12676;BME280;63820;65.654;21.944;2023-07-29T13:33:02;99309.38;;;18.42;100.00
12676;BME280;63820;65.654;21.944;2023-07-29T13:35:46;99314.34;;;18.45;100.00
12676;BME280;63820;65.654;21.944;2023-07-29T13:38:30;99306.03;;;18.40;100.00
12676;BME280;63820;65.654;21.944;2023-07-29T13:41:14;99299.91;;;18.49;100.00
12676;BME280;63820;65.654;21.944;2023-07-29T13:43:58;99306.44;;;18.45;100.00
12676;BME280;63820;65.654;21.944;2023-07-29T13:46:42;99308.56;;;18.32;100.00
12676;BME280;63820;65.654;21.944;2023-07-29T13:49:27;99306.69;;;18.14;100.00
12676;BME280;63820;65.654;21.944;2023-07-29T13:52:11;99304.88;;;18.15;100.00
12676;BME280;63820;65.654;21.944;2023-07-29T13:54:55;99302.78;;;18.18;100.00
12676;BME280;63820;65.654;21.944;2023-07-29T13:57:40;99307.53;;;18.52;100.00
12676;BME280;63820;65.654;21.944;2023-07-29T14:00:25;99295.16;;;18.62;100.00
12676;BME280;63820;65.654;21.944;2023-07-29T14:03:09;99308.34;;;18.62;100.00
12676;BME280;63820;65.654;21.944;2023-07-29T14:05:53;99299.22;;;18.74;100.00
12676;BME280;63820;65.654;21.944;2023-07-29T14:08:37;99305.81;;;18.88;100.00
12676;BME280;63820;65.654;21.944;2023-07-29T14:11:24;99302.78;;;18.83;100.00
12676;BME280;63820;65.654;21.944;2023-07-29T14:14:09;99300.09;;;18.92;100.00
12676;BME280;63820;65.654;21.944;2023-07-29T14:16:55;99311.97;;;18.79;100.00
12676;BME280;63820;65.654;21.944;2023-07-29T14:19:38;99302.94;;;18.81;100.00
12676;BME280;63820;65.654;21.944;2023-07-29T14:22:23;99311.03;;;18.98;100.00
12676;BME280;63820;65.654;21.944;2023-07-29T14:25:07;99313.28;;;18.92;100.00
12676;BME280;63820;65.654;21.944;2023-07-29T14:27:51;99311.25;;;19.04;100.00
12676;BME280;63820;65.654;21.944;2023-07-29T14:30:35;99316.09;;;19.09;100.00
12676;BME280;63820;65.654;21.944;2023-07-29T14:33:19;99317.75;;;19.10;100.00
12676;BME280;63820;65.654;21.944;2023-07-29T14:36:03;99317.66;;;19.02;100.00